Time,TemperatureF,DewpointF,PressureIn,WindDirection,WindDirectionDegrees,WindSpeedMPH,WindSpeedGustMPH,Humidity,HourlyPrecipIn,Conditions,Clouds,dailyrainin,SoftwareType,DateUTC
2013-08-29 00:00:00,66.9,66.9,29.97,SW,234,0.0,1.0,100,0.00,,OVC055,0.00,VWS V14.01,2013-08-29 04:00:00,
2013-08-29 00:01:00,67.0,67.0,29.97,SW,234,0.0,0.0,100,0.00,,OVC055,0.00,VWS V14.01,2013-08-29 04:01:00,
2013-08-29 00:06:00,67.0,67.0,29.97,SW,234,0.0,0.0,100,0.00,,OVC055,0.00,VWS V14.01,2013-08-29 04:06:00,
2013-08-29 00:11:00,66.9,66.9,29.97,SW,234,0.0,0.0,100,0.00,,OVC055,0.00,VWS V14.01,2013-08-29 04:11:00,
2013-08-29 00:16:00,66.8,66.8,29.97,SW,234,0.0,0.0,100,0.00,,OVC055,0.00,VWS V14.01,2013-08-29 04:16:00,
2013-08-29 00:21:00,66.7,66.7,29.97,SW,234,0.0,0.0,100,0.00,,OVC055,0.00,VWS V14.01,2013-08-29 04:21:00,
2013-08-29 00:26:00,66.6,66.6,29.97,SW,234,0.0,0.0,100,0.00,,OVC055,0.00,VWS V14.01,2013-08-29 04:26:00,
2013-08-29 00:30:00,66.6,66.6,29.97,SW,234,0.0,0.0,100,0.00,,OVC055,0.00,VWS V14.01,2013-08-29 04:30:00,
2013-08-29 00:31:00,66.6,66.6,29.97,SW,234,0.0,0.0,100,0.00,,OVC055,0.00,VWS V14.01,2013-08-29 04:31:00,
2013-08-29 00:36:00,66.7,66.7,29.97,SW,234,0.0,0.0,100,0.00,,OVC055,0.00,VWS V14.01,2013-08-29 04:36:00,
2013-08-29 00:41:00,66.6,66.6,29.97,SW,234,0.0,0.0,100,0.00,,OVC055,0.00,VWS V14.01,2013-08-29 04:41:00,
2013-08-29 00:46:00,66.4,66.4,29.96,SW,234,0.0,0.0,100,0.00,,OVC055,0.00,VWS V14.01,2013-08-29 04:46:00,
2013-08-29 00:51:00,66.3,66.3,29.96,SW,234,0.0,0.0,100,0.00,,OVC055,0.00,VWS V14.01,2013-08-29 04:51:00,
2013-08-29 00:56:00,66.1,66.1,29.96,SW,234,0.0,0.0,100,0.00,,OVC055,0.00,VWS V14.01,2013-08-29 04:56:00,
2013-08-29 01:00:00,66.0,66.0,29.96,SW,234,0.0,0.0,100,0.00,,OVC055,0.00,VWS V14.01,2013-08-29 05:00:00,
2013-08-29 01:01:00,66.0,66.0,29.96,SW,234,0.0,0.0,100,0.00,,OVC055,0.00,VWS V14.01,2013-08-29 05:01:00,
2013-08-29 01:06:00,65.8,65.8,29.96,SW,234,0.0,0.0,100,0.00,,OVC055,0.00,VWS V14.01,2013-08-29 05:06:00,
2013-08-29 01:11:00,65.7,65.7,29.96,SW,234,0.0,0.0,100,0.00,,OVC055,0.00,VWS V14.01,2013-08-29 05:11:00,
2013-08-29 01:16:00,65.7,65.7,29.96,SW,234,0.0,0.0,100,0.00,,OVC055,0.00,VWS V14.01,2013-08-29 05:16:00,
2013-08-29 01:21:00,65.5,65.5,29.96,SW,234,0.0,0.0,100,0.00,,OVC055,0.00,VWS V14.01,2013-08-29 05:21:00,
2013-08-29 01:26:00,65.5,65.5,29.96,SW,234,0.0,0.0,100,0.00,,OVC055,0.00,VWS V14.01,2013-08-29 05:26:00,
2013-08-29 01:28:00,65.5,65.5,29.96,SW,234,0.0,0.0,100,0.00,,OVC055,0.00,VWS V14.01,2013-08-29 05:28:00,
2013-08-29 01:30:00,65.5,65.5,29.96,SW,234,0.0,0.0,100,0.00,,OVC055,0.00,VWS V14.01,2013-08-29 05:30:00,
2013-08-29 01:33:00,65.5,65.5,29.96,SW,234,0.0,0.0,100,0.00,,OVC055,0.00,VWS V14.01,2013-08-29 05:33:00,
2013-08-29 01:38:00,65.5,65.5,29.96,SW,234,0.0,0.0,100,0.00,,OVC055,0.00,VWS V14.01,2013-08-29 05:38:00,
2013-08-29 01:43:00,65.5,65.5,29.96,SW,234,0.0,0.0,100,0.00,,OVC055,0.00,VWS V14.01,2013-08-29 05:43:00,
2013-08-29 01:48:00,65.4,65.4,29.96,SW,234,0.0,0.0,100,0.00,,OVC055,0.00,VWS V14.01,2013-08-29 05:48:00,
2013-08-29 01:53:00,65.3,65.3,29.96,NW,319,1.0,3.0,100,0.00,,OVC055,0.00,VWS V14.01,2013-08-29 05:53:00,
2013-08-29 01:58:00,65.3,65.3,29.96,NW,319,0.0,3.0,100,0.00,,OVC055,0.00,VWS V14.01,2013-08-29 05:58:00,
2013-08-29 02:00:00,65.3,65.3,29.96,NW,319,0.0,3.0,100,0.00,,OVC055,0.00,VWS V14.01,2013-08-29 06:00:00,
2013-08-29 02:03:00,65.4,65.4,29.96,NW,319,0.0,0.0,100,0.00,,OVC055,0.00,VWS V14.01,2013-08-29 06:03:00,
2013-08-29 02:08:00,65.3,65.3,29.96,NW,319,2.0,2.0,100,0.00,,OVC055,0.00,VWS V14.01,2013-08-29 06:08:00,
2013-08-29 02:13:00,65.3,65.3,29.95,NW,319,0.0,2.0,100,0.00,,OVC055,0.00,VWS V14.01,2013-08-29 06:13:00,
2013-08-29 02:18:00,65.2,65.2,29.96,NW,319,1.0,2.0,100,0.00,,OVC055,0.00,VWS V14.01,2013-08-29 06:18:00,
2013-08-29 02:23:00,65.3,65.3,29.96,NW,319,0.0,2.0,100,0.00,,OVC055,0.00,VWS V14.01,2013-08-29 06:23:00,
2013-08-29 02:28:00,65.4,65.4,29.96,NW,319,0.0,2.0,100,0.00,,OVC055,0.00,VWS V14.01,2013-08-29 06:28:00,
2013-08-29 02:30:00,65.4,65.4,29.96,NW,319,0.0,2.0,100,0.00,,OVC055,0.00,VWS V14.01,2013-08-29 06:30:00,
2013-08-29 02:33:00,65.4,65.4,29.96,NW,319,0.0,0.0,100,0.00,,OVC055,0.00,VWS V14.01,2013-08-29 06:33:00,
2013-08-29 02:38:00,65.3,65.3,29.96,NW,319,0.0,1.0,100,0.00,,OVC055,0.00,VWS V14.01,2013-08-29 06:38:00,
2013-08-29 02:43:00,65.4,65.4,29.96,NW,319,0.0,1.0,100,0.00,,OVC055,0.00,VWS V14.01,2013-08-29 06:43:00,
2013-08-29 02:48:00,65.4,65.4,29.96,NW,319,0.0,1.0,100,0.00,,OVC055,0.00,VWS V14.01,2013-08-29 06:48:00,
2013-08-29 02:53:00,65.4,65.4,29.96,NW,319,1.0,1.0,100,0.00,,OVC055,0.00,VWS V14.01,2013-08-29 06:53:00,
2013-08-29 02:58:00,65.4,65.4,29.95,NW,319,0.0,1.0,100,0.00,,OVC055,0.00,VWS V14.01,2013-08-29 06:58:00,
2013-08-29 03:00:00,65.4,65.4,29.95,NW,319,0.0,1.0,100,0.00,,OVC055,0.00,VWS V14.01,2013-08-29 07:00:00,
2013-08-29 03:03:00,65.3,65.3,29.95,NW,319,0.0,0.0,100,0.00,,OVC055,0.00,VWS V14.01,2013-08-29 07:03:00,
2013-08-29 03:08:00,65.3,65.3,29.96,NW,319,0.0,0.0,100,0.00,,OVC055,0.00,VWS V14.01,2013-08-29 07:08:00,
2013-08-29 03:13:00,65.2,65.2,29.95,NW,319,0.0,0.0,100,0.00,,OVC055,0.00,VWS V14.01,2013-08-29 07:13:00,
2013-08-29 03:18:00,65.1,65.1,29.96,NW,319,0.0,0.0,100,0.00,,OVC055,0.00,VWS V14.01,2013-08-29 07:18:00,
2013-08-29 03:23:00,65.0,65.0,29.96,NW,319,0.0,0.0,100,0.00,,OVC055,0.00,VWS V14.01,2013-08-29 07:23:00,
2013-08-29 03:28:00,64.9,64.9,29.96,NW,319,0.0,0.0,100,0.00,,OVC055,0.00,VWS V14.01,2013-08-29 07:28:00,
2013-08-29 03:30:00,64.9,64.9,29.96,NW,319,0.0,0.0,100,0.00,,OVC055,0.00,VWS V14.01,2013-08-29 07:30:00,
2013-08-29 03:33:00,64.8,64.8,29.96,NW,319,0.0,0.0,100,0.00,,OVC055,0.00,VWS V14.01,2013-08-29 07:33:00,
2013-08-29 03:38:00,64.7,64.7,29.96,NW,319,0.0,0.0,100,0.00,,OVC055,0.00,VWS V14.01,2013-08-29 07:38:00,
2013-08-29 03:43:00,64.8,64.8,29.96,NW,319,0.0,0.0,100,0.00,,OVC055,0.00,VWS V14.01,2013-08-29 07:43:00,
2013-08-29 03:48:00,64.8,64.8,29.96,NW,319,0.0,0.0,100,0.00,,OVC055,0.00,VWS V14.01,2013-08-29 07:48:00,
2013-08-29 03:53:00,64.8,64.8,29.96,NW,319,0.0,0.0,100,0.00,,OVC055,0.00,VWS V14.01,2013-08-29 07:53:00,
2013-08-29 03:58:00,64.8,64.8,29.96,NW,319,0.0,0.0,100,0.00,,OVC055,0.00,VWS V14.01,2013-08-29 07:58:00,
2013-08-29 04:00:00,64.8,64.8,29.96,NW,319,0.0,0.0,100,0.00,,OVC055,0.00,VWS V14.01,2013-08-29 08:00:00,
2013-08-29 04:03:00,64.8,64.8,29.96,NW,319,0.0,0.0,100,0.00,,OVC055,0.00,VWS V14.01,2013-08-29 08:03:00,
2013-08-29 04:08:00,64.8,64.8,29.96,NW,319,0.0,0.0,100,0.00,,OVC055,0.00,VWS V14.01,2013-08-29 08:08:00,
2013-08-29 04:12:00,64.7,64.7,29.96,NW,319,0.0,0.0,100,0.00,,OVC055,0.00,VWS V14.01,2013-08-29 08:12:00,
2013-08-29 04:17:00,64.5,64.5,29.95,NW,319,0.0,0.0,100,0.00,,OVC055,0.00,VWS V14.01,2013-08-29 08:17:00,
2013-08-29 04:22:00,64.4,64.4,29.95,NW,319,0.0,0.0,100,0.00,,OVC055,0.00,VWS V14.01,2013-08-29 08:22:00,
2013-08-29 04:27:00,64.4,64.4,29.95,NW,319,0.0,0.0,100,0.00,,OVC055,0.00,VWS V14.01,2013-08-29 08:27:00,
2013-08-29 04:30:00,64.4,64.4,29.95,NW,319,0.0,0.0,100,0.00,,OVC055,0.00,VWS V14.01,2013-08-29 08:30:00,
2013-08-29 04:32:00,64.4,64.4,29.95,NW,319,1.0,1.0,100,0.00,,OVC055,0.00,VWS V14.01,2013-08-29 08:32:00,
2013-08-29 04:37:00,64.4,64.4,29.95,NW,319,0.0,1.0,100,0.00,,OVC055,0.00,VWS V14.01,2013-08-29 08:37:00,
2013-08-29 04:42:00,64.3,64.3,29.95,NW,319,0.0,1.0,100,0.00,,OVC055,0.00,VWS V14.01,2013-08-29 08:42:00,
2013-08-29 04:47:00,64.2,64.2,29.95,NW,319,0.0,1.0,100,0.00,,OVC055,0.00,VWS V14.01,2013-08-29 08:47:00,
2013-08-29 04:52:00,64.0,64.0,29.95,NW,319,0.0,1.0,100,0.00,,OVC055,0.00,VWS V14.01,2013-08-29 08:52:00,
2013-08-29 04:57:00,63.9,63.9,29.95,NW,319,0.0,1.0,100,0.00,,OVC055,0.00,VWS V14.01,2013-08-29 08:57:00,
2013-08-29 05:00:00,63.9,63.9,29.95,NW,319,0.0,1.0,100,0.00,,OVC055,0.00,VWS V14.01,2013-08-29 09:00:00,
2013-08-29 05:02:00,63.8,63.8,29.95,NW,319,0.0,1.0,100,0.00,,OVC055,0.00,VWS V14.01,2013-08-29 09:02:00,
2013-08-29 05:07:00,63.8,63.8,29.95,NW,319,0.0,1.0,100,0.00,,OVC055,0.00,VWS V14.01,2013-08-29 09:07:00,
2013-08-29 05:12:00,63.9,63.9,29.95,NW,319,0.0,2.0,100,0.00,,OVC055,0.00,VWS V14.01,2013-08-29 09:12:00,
2013-08-29 05:17:00,63.9,63.9,29.95,NW,319,0.0,2.0,100,0.00,,OVC055,0.00,VWS V14.01,2013-08-29 09:17:00,
2013-08-29 05:22:00,64.0,64.0,29.95,NW,319,0.0,2.0,100,0.00,,OVC055,0.00,VWS V14.01,2013-08-29 09:22:00,
2013-08-29 05:27:00,63.9,63.9,29.95,NW,319,0.0,2.0,100,0.00,,OVC055,0.00,VWS V14.01,2013-08-29 09:27:00,
2013-08-29 05:30:00,63.9,63.9,29.95,NW,319,0.0,2.0,100,0.00,,OVC055,0.00,VWS V14.01,2013-08-29 09:30:00,
2013-08-29 05:32:00,63.8,63.8,29.95,NW,319,0.0,0.0,100,0.00,,OVC055,0.00,VWS V14.01,2013-08-29 09:32:00,
2013-08-29 05:37:00,63.7,63.7,29.95,NW,319,0.0,0.0,100,0.00,,OVC055,0.00,VWS V14.01,2013-08-29 09:37:00,
2013-08-29 05:42:00,63.6,63.6,29.95,NW,319,0.0,0.0,100,0.00,,OVC055,0.00,VWS V14.01,2013-08-29 09:42:00,
2013-08-29 05:47:00,63.5,63.5,29.95,NW,319,0.0,0.0,100,0.00,,OVC055,0.00,VWS V14.01,2013-08-29 09:47:00,
2013-08-29 05:52:00,63.4,63.4,29.95,NW,319,0.0,0.0,100,0.00,,OVC055,0.00,VWS V14.01,2013-08-29 09:52:00,
2013-08-29 05:57:00,63.3,63.3,29.95,NW,319,0.0,1.0,100,0.00,,OVC055,0.00,VWS V14.01,2013-08-29 09:57:00,
2013-08-29 06:00:00,63.3,63.3,29.95,NW,319,0.0,1.0,100,0.00,,OVC055,0.00,VWS V14.01,2013-08-29 10:00:00,
2013-08-29 06:02:00,63.2,63.2,29.95,NW,319,0.0,0.0,100,0.00,,OVC055,0.00,VWS V14.01,2013-08-29 10:02:00,
2013-08-29 06:07:00,63.2,63.2,29.95,NW,319,0.0,0.0,100,0.00,,OVC055,0.00,VWS V14.01,2013-08-29 10:07:00,
2013-08-29 06:12:00,63.1,63.1,29.95,NW,319,0.0,1.0,100,0.00,,OVC055,0.00,VWS V14.01,2013-08-29 10:12:00,
2013-08-29 06:17:00,63.1,63.1,29.95,NW,319,0.0,1.0,100,0.00,,OVC055,0.00,VWS V14.01,2013-08-29 10:17:00,
2013-08-29 06:22:00,63.1,63.1,29.95,NW,319,0.0,1.0,100,0.00,,OVC055,0.00,VWS V14.01,2013-08-29 10:22:00,
2013-08-29 06:27:00,63.0,63.0,29.95,NW,319,0.0,2.0,100,0.00,,OVC055,0.00,VWS V14.01,2013-08-29 10:27:00,
2013-08-29 06:30:00,63.0,63.0,29.95,NW,319,0.0,2.0,100,0.00,,OVC055,0.00,VWS V14.01,2013-08-29 10:30:00,
2013-08-29 06:32:00,63.0,63.0,29.95,NW,319,0.0,1.0,100,0.00,,OVC055,0.00,VWS V14.01,2013-08-29 10:32:00,
2013-08-29 06:37:00,63.0,63.0,29.95,NW,319,0.0,1.0,100,0.00,,OVC055,0.00,VWS V14.01,2013-08-29 10:37:00,
2013-08-29 06:42:00,63.0,63.0,29.95,NW,319,0.0,1.0,100,0.00,,OVC055,0.00,VWS V14.01,2013-08-29 10:42:00,
2013-08-29 06:47:00,63.0,63.0,29.96,NNW,337,0.0,4.0,100,0.01,,OVC055,0.01,VWS V14.01,2013-08-29 10:47:00,
2013-08-29 06:52:00,62.9,62.9,29.96,NNW,337,1.0,4.0,100,0.01,,OVC055,0.01,VWS V14.01,2013-08-29 10:52:00,
2013-08-29 06:57:00,62.9,62.9,29.96,NNW,337,0.0,4.0,100,0.01,,OVC055,0.01,VWS V14.01,2013-08-29 10:57:00,
2013-08-29 07:00:00,62.9,62.9,29.96,NNW,337,0.0,4.0,100,0.01,,OVC055,0.01,VWS V14.01,2013-08-29 11:00:00,
2013-08-29 07:02:00,62.9,62.9,29.96,NNW,337,0.0,0.0,100,0.01,,OVC055,0.01,VWS V14.01,2013-08-29 11:02:00,
2013-08-29 07:07:00,62.8,62.8,29.96,NNW,337,0.0,0.0,100,0.01,,OVC055,0.01,VWS V14.01,2013-08-29 11:07:00,
2013-08-29 07:12:00,62.8,62.8,29.97,NNW,337,0.0,0.0,100,0.01,,OVC055,0.01,VWS V14.01,2013-08-29 11:12:00,
2013-08-29 07:17:00,62.8,62.8,29.97,NNW,337,0.0,0.0,100,0.01,,OVC055,0.01,VWS V14.01,2013-08-29 11:17:00,
2013-08-29 07:22:00,62.9,62.9,29.97,NNW,337,0.0,1.0,100,0.01,,OVC055,0.01,VWS V14.01,2013-08-29 11:22:00,
2013-08-29 07:27:00,62.9,62.9,29.97,NNW,337,0.0,1.0,100,0.01,,OVC055,0.01,VWS V14.01,2013-08-29 11:27:00,
2013-08-29 07:30:00,62.9,62.9,29.97,NNW,337,0.0,1.0,100,0.01,,OVC055,0.01,VWS V14.01,2013-08-29 11:30:00,
2013-08-29 07:32:00,63.0,63.0,29.97,NNW,337,0.0,1.0,100,0.01,,OVC055,0.01,VWS V14.01,2013-08-29 11:32:00,
2013-08-29 07:37:00,63.1,63.1,29.97,NNW,337,1.0,1.0,100,0.01,,OVC055,0.01,VWS V14.01,2013-08-29 11:37:00,
2013-08-29 07:42:00,63.4,63.4,29.97,North,355,0.0,3.0,100,0.01,,OVC055,0.01,VWS V14.01,2013-08-29 11:42:00,
2013-08-29 07:47:00,63.5,63.5,29.98,North,355,0.0,3.0,100,0.01,,OVC055,0.01,VWS V14.01,2013-08-29 11:47:00,
2013-08-29 07:52:00,63.6,63.6,29.98,North,355,0.0,3.0,100,0.01,,OVC055,0.01,VWS V14.01,2013-08-29 11:52:00,
2013-08-29 07:57:00,63.6,63.6,29.98,North,355,0.0,3.0,100,0.01,,OVC055,0.01,VWS V14.01,2013-08-29 11:57:00,
2013-08-29 08:00:00,63.6,63.6,29.98,North,355,0.0,3.0,100,0.01,,OVC055,0.01,VWS V14.01,2013-08-29 12:00:00,
2013-08-29 08:02:00,63.8,63.8,29.98,North,355,0.0,0.0,100,0.00,,OVC055,0.01,VWS V14.01,2013-08-29 12:02:00,
2013-08-29 08:07:00,63.9,63.9,29.98,North,355,0.0,0.0,100,0.00,,OVC055,0.01,VWS V14.01,2013-08-29 12:07:00,
2013-08-29 08:12:00,64.1,64.1,29.98,North,355,0.0,0.0,100,0.00,,OVC055,0.01,VWS V14.01,2013-08-29 12:12:00,
2013-08-29 08:17:00,64.3,64.3,29.98,North,355,0.0,1.0,100,0.00,,OVC055,0.01,VWS V14.01,2013-08-29 12:17:00,
2013-08-29 08:22:00,64.4,64.4,29.98,North,355,0.0,1.0,100,0.00,,OVC055,0.01,VWS V14.01,2013-08-29 12:22:00,
2013-08-29 08:27:00,64.5,64.5,29.98,North,355,0.0,1.0,100,0.00,,OVC055,0.01,VWS V14.01,2013-08-29 12:27:00,
2013-08-29 08:30:00,64.5,64.5,29.98,North,355,0.0,1.0,100,0.00,,OVC055,0.01,VWS V14.01,2013-08-29 12:30:00,
2013-08-29 08:32:00,64.6,64.6,29.98,North,355,0.0,0.0,100,0.00,,OVC055,0.01,VWS V14.01,2013-08-29 12:32:00,
2013-08-29 08:37:00,64.8,64.8,29.98,North,355,0.0,0.0,100,0.00,,OVC055,0.01,VWS V14.01,2013-08-29 12:37:00,
2013-08-29 08:42:00,65.3,65.3,29.98,North,355,1.0,2.0,100,0.00,,OVC055,0.01,VWS V14.01,2013-08-29 12:42:00,
2013-08-29 08:47:00,65.5,65.5,29.98,North,360,1.0,2.0,100,0.00,,OVC055,0.01,VWS V14.01,2013-08-29 12:47:00,
2013-08-29 08:52:00,65.5,65.5,29.98,North,360,0.0,2.0,100,0.00,,OVC055,0.01,VWS V14.01,2013-08-29 12:52:00,
2013-08-29 08:57:00,65.6,65.6,29.98,North,360,0.0,2.0,100,0.00,,OVC055,0.01,VWS V14.01,2013-08-29 12:57:00,
2013-08-29 09:00:00,65.7,65.7,29.98,North,360,0.0,2.0,100,0.00,,OVC055,0.01,VWS V14.01,2013-08-29 13:00:00,
2013-08-29 09:02:00,65.8,65.8,29.98,North,360,0.0,0.0,100,0.00,,OVC055,0.01,VWS V14.01,2013-08-29 13:02:00,
2013-08-29 09:07:00,66.1,66.1,29.99,North,360,0.0,1.0,100,0.00,,OVC055,0.01,VWS V14.01,2013-08-29 13:07:00,
2013-08-29 09:12:00,66.4,66.4,29.99,North,360,0.0,1.0,100,0.00,,OVC055,0.01,VWS V14.01,2013-08-29 13:12:00,
2013-08-29 09:17:00,66.8,66.8,29.98,North,360,0.0,1.0,100,0.00,,OVC055,0.01,VWS V14.01,2013-08-29 13:17:00,
2013-08-29 09:22:00,67.4,67.4,29.99,North,360,0.0,1.0,100,0.00,,OVC055,0.01,VWS V14.01,2013-08-29 13:22:00,
2013-08-29 09:27:00,67.7,67.7,29.98,North,360,0.0,1.0,100,0.00,,OVC055,0.01,VWS V14.01,2013-08-29 13:27:00,
2013-08-29 09:30:00,67.9,67.9,29.98,North,360,0.0,1.0,100,0.00,,OVC055,0.01,VWS V14.01,2013-08-29 13:30:00,
2013-08-29 09:32:00,68.3,68.3,29.98,North,360,0.0,0.0,100,0.00,,OVC055,0.01,VWS V14.01,2013-08-29 13:32:00,
2013-08-29 09:37:00,68.8,68.8,29.99,North,360,0.0,1.0,100,0.00,,OVC055,0.01,VWS V14.01,2013-08-29 13:37:00,
2013-08-29 09:42:00,69.5,69.5,29.99,North,360,2.0,2.0,100,0.00,,OVC055,0.01,VWS V14.01,2013-08-29 13:42:00,
2013-08-29 09:47:00,70.4,70.1,29.99,North,360,0.0,2.0,99,0.00,,OVC055,0.01,VWS V14.01,2013-08-29 13:47:00,
2013-08-29 09:52:00,71.2,70.3,29.99,North,360,0.0,2.0,97,0.00,,OVC055,0.01,VWS V14.01,2013-08-29 13:52:00,
2013-08-29 09:57:00,72.1,70.6,29.99,North,5,0.0,2.0,95,0.00,,OVC055,0.01,VWS V14.01,2013-08-29 13:57:00,
2013-08-29 10:00:00,72.3,70.5,29.99,North,5,0.0,2.0,94,0.00,,OVC055,0.01,VWS V14.01,2013-08-29 14:00:00,
2013-08-29 10:02:00,73.0,70.9,29.99,North,5,0.0,1.0,93,0.00,,OVC055,0.01,VWS V14.01,2013-08-29 14:02:00,
2013-08-29 10:07:00,73.8,71.3,29.99,ENE,72,0.0,2.0,92,0.00,,OVC055,0.01,VWS V14.01,2013-08-29 14:07:00,
2013-08-29 10:12:00,74.5,71.7,29.99,ENE,72,0.0,2.0,91,0.00,,OVC055,0.01,VWS V14.01,2013-08-29 14:12:00,
2013-08-29 10:17:00,74.8,71.3,29.99,ENE,72,0.0,2.0,89,0.00,,OVC055,0.01,VWS V14.01,2013-08-29 14:17:00,
2013-08-29 10:22:00,75.2,72.1,29.99,ENE,72,0.0,2.0,90,0.00,,OVC055,0.01,VWS V14.01,2013-08-29 14:22:00,
2013-08-29 10:27:00,75.9,72.4,29.98,ENE,72,1.0,2.0,89,0.00,,OVC055,0.01,VWS V14.01,2013-08-29 14:27:00,
2013-08-29 10:30:00,76.1,71.9,29.99,ENE,72,0.0,2.0,87,0.00,,OVC055,0.01,VWS V14.01,2013-08-29 14:30:00,
2013-08-29 10:32:00,76.4,72.6,29.98,ENE,72,0.0,1.0,88,0.00,,OVC055,0.01,VWS V14.01,2013-08-29 14:32:00,
2013-08-29 10:37:00,76.5,72.3,29.99,NNE,33,0.0,2.0,87,0.00,,OVC055,0.01,VWS V14.01,2013-08-29 14:37:00,
2013-08-29 10:42:00,77.0,72.8,29.98,NNE,26,1.0,3.0,87,0.00,,OVC055,0.01,VWS V14.01,2013-08-29 14:42:00,
2013-08-29 10:46:00,77.4,72.2,29.99,NNE,26,0.0,3.0,84,0.00,,OVC055,0.01,VWS V14.01,2013-08-29 14:46:00,
2013-08-29 10:51:00,77.8,72.6,29.99,NNE,26,0.0,3.0,84,0.00,,OVC055,0.01,VWS V14.01,2013-08-29 14:51:00,
2013-08-29 10:56:00,78.1,72.9,29.98,NNE,26,0.0,3.0,84,0.00,,OVC055,0.01,VWS V14.01,2013-08-29 14:56:00,
2013-08-29 11:00:00,78.2,73.7,29.98,NNE,26,0.0,3.0,86,0.00,,OVC055,0.01,VWS V14.01,2013-08-29 15:00:00,
2013-08-29 11:01:00,78.6,73.7,29.98,NNE,30,2.0,3.0,85,0.00,,OVC055,0.01,VWS V14.01,2013-08-29 15:01:00,
2013-08-29 11:06:00,78.3,73.1,29.99,NNE,22,2.0,5.0,84,0.00,,OVC055,0.01,VWS V14.01,2013-08-29 15:06:00,
2013-08-29 11:11:00,78.1,72.9,29.98,North,5,0.0,5.0,84,0.00,,OVC055,0.01,VWS V14.01,2013-08-29 15:11:00,
2013-08-29 11:16:00,78.7,73.5,29.98,North,355,4.0,5.0,84,0.00,,OVC055,0.01,VWS V14.01,2013-08-29 15:16:00,
2013-08-29 11:21:00,78.9,72.9,29.98,NNW,348,5.0,5.0,82,0.00,,OVC055,0.01,VWS V14.01,2013-08-29 15:21:00,
2013-08-29 11:26:00,78.9,73.3,29.98,NNE,20,1.0,5.0,83,0.00,,OVC055,0.01,VWS V14.01,2013-08-29 15:26:00,
2013-08-29 11:30:00,78.9,73.7,29.98,NNE,20,1.0,5.0,84,0.00,,OVC055,0.01,VWS V14.01,2013-08-29 15:30:00,
2013-08-29 11:31:00,78.9,73.3,29.98,North,350,3.0,5.0,83,0.00,,OVC055,0.01,VWS V14.01,2013-08-29 15:31:00,
2013-08-29 11:36:00,78.8,73.9,29.98,North,10,0.0,5.0,85,0.00,,OVC055,0.01,VWS V14.01,2013-08-29 15:36:00,
2013-08-29 11:41:00,78.9,73.7,29.98,NNE,18,2.0,7.0,84,0.00,,OVC055,0.01,VWS V14.01,2013-08-29 15:41:00,
2013-08-29 11:46:00,79.0,73.8,29.98,NNE,30,2.0,7.0,84,0.00,,OVC055,0.01,VWS V14.01,2013-08-29 15:46:00,
2013-08-29 11:51:00,79.5,73.9,29.98,NNE,19,3.0,7.0,83,0.00,,OVC055,0.01,VWS V14.01,2013-08-29 15:51:00,
2013-08-29 11:56:00,79.8,73.4,29.97,NNE,23,2.0,7.0,81,0.00,,OVC055,0.01,VWS V14.01,2013-08-29 15:56:00,
2013-08-29 12:00:00,79.8,74.2,29.97,North,5,2.0,7.0,83,0.00,,OVC055,0.01,VWS V14.01,2013-08-29 16:00:00,
2013-08-29 12:01:00,80.4,74.8,29.98,NE,44,4.0,4.0,83,0.00,,OVC055,0.01,VWS V14.01,2013-08-29 16:01:00,
2013-08-29 12:06:00,81.0,74.2,29.97,North,9,2.0,5.0,80,0.00,,OVC055,0.01,VWS V14.01,2013-08-29 16:06:00,
2013-08-29 12:11:00,81.5,72.8,29.97,NNW,338,2.0,5.0,75,0.00,,OVC055,0.01,VWS V14.01,2013-08-29 16:11:00,
2013-08-29 12:16:00,81.9,72.8,29.97,NNE,24,2.0,5.0,74,0.00,,OVC055,0.01,VWS V14.01,2013-08-29 16:16:00,
2013-08-29 12:21:00,81.8,74.3,29.97,NE,38,0.0,5.0,78,0.00,,OVC055,0.01,VWS V14.01,2013-08-29 16:21:00,
2013-08-29 12:26:00,81.8,74.3,29.97,NE,38,0.0,5.0,78,0.00,,OVC055,0.01,VWS V14.01,2013-08-29 16:26:00,
2013-08-29 12:30:00,81.6,74.1,29.97,NE,38,1.0,5.0,78,0.00,,OVC055,0.01,VWS V14.01,2013-08-29 16:30:00,
2013-08-29 12:31:00,80.9,74.2,29.97,NE,38,0.0,1.0,80,0.00,,OVC055,0.01,VWS V14.01,2013-08-29 16:31:00,
2013-08-29 12:36:00,80.5,73.8,29.96,NE,38,0.0,1.0,80,0.00,,OVC055,0.01,VWS V14.01,2013-08-29 16:36:00,
2013-08-29 12:41:00,80.7,74.7,29.96,NE,38,1.0,1.0,82,0.00,,OVC055,0.01,VWS V14.01,2013-08-29 16:41:00,
2013-08-29 12:46:00,81.4,75.4,29.96,NE,38,0.0,1.0,82,0.00,,OVC055,0.01,VWS V14.01,2013-08-29 16:46:00,
2013-08-29 12:51:00,81.7,75.3,29.95,NE,38,0.0,1.0,81,0.00,,OVC055,0.01,VWS V14.01,2013-08-29 16:51:00,
2013-08-29 12:56:00,81.9,75.1,29.95,NE,38,0.0,1.0,80,0.00,,OVC055,0.01,VWS V14.01,2013-08-29 16:56:00,
2013-08-29 13:00:00,82.0,75.2,29.96,NE,38,2.0,3.0,80,0.00,,OVC055,0.01,VWS V14.01,2013-08-29 17:00:00,
2013-08-29 13:01:00,82.3,74.0,29.95,NE,38,3.0,3.0,76,0.00,,OVC055,0.01,VWS V14.01,2013-08-29 17:01:00,
2013-08-29 13:06:00,82.6,75.4,29.95,NE,36,0.0,3.0,79,0.00,,OVC055,0.01,VWS V14.01,2013-08-29 17:06:00,
2013-08-29 13:11:00,82.9,74.6,29.95,NE,36,0.0,3.0,76,0.00,,OVC055,0.01,VWS V14.01,2013-08-29 17:11:00,
2013-08-29 13:16:00,82.7,75.5,29.95,NE,36,0.0,3.0,79,0.00,,OVC055,0.01,VWS V14.01,2013-08-29 17:16:00,
2013-08-29 13:21:00,82.7,74.8,29.95,North,360,4.0,6.0,77,0.00,,OVC055,0.01,VWS V14.01,2013-08-29 17:21:00,
2013-08-29 13:26:00,83.1,73.6,29.95,North,355,2.0,6.0,73,0.00,,OVC055,0.01,VWS V14.01,2013-08-29 17:26:00,
2013-08-29 13:30:00,83.2,74.8,29.95,North,355,3.0,6.0,76,0.00,,OVC055,0.01,VWS V14.01,2013-08-29 17:30:00,
2013-08-29 13:31:00,83.4,75.1,29.95,NNE,32,3.0,4.0,76,0.00,,OVC055,0.01,VWS V14.01,2013-08-29 17:31:00,
2013-08-29 13:36:00,83.8,74.2,29.95,NNE,26,2.0,6.0,73,0.00,,OVC055,0.01,VWS V14.01,2013-08-29 17:36:00,
2013-08-29 13:41:00,84.0,74.0,29.95,NNE,24,1.0,6.0,72,0.00,,OVC055,0.01,VWS V14.01,2013-08-29 17:41:00,
2013-08-29 13:46:00,84.7,75.9,29.95,NNE,17,1.0,6.0,75,0.00,,OVC055,0.01,VWS V14.01,2013-08-29 17:46:00,
2013-08-29 13:51:00,85.2,74.7,29.95,NNE,28,0.0,6.0,71,0.00,,OVC055,0.01,VWS V14.01,2013-08-29 17:51:00,
2013-08-29 13:56:00,85.5,75.4,29.94,NNE,28,1.0,6.0,72,0.00,,OVC055,0.01,VWS V14.01,2013-08-29 17:56:00,
2013-08-29 14:00:00,85.2,75.2,29.94,NNE,28,0.0,6.0,72,0.00,,OVC055,0.01,VWS V14.01,2013-08-29 18:00:00,
2013-08-29 14:01:00,85.1,74.2,29.94,NNE,28,1.0,2.0,70,0.00,,OVC055,0.01,VWS V14.01,2013-08-29 18:01:00,
2013-08-29 14:06:00,85.5,75.9,29.94,SE,139,1.0,2.0,73,0.00,,OVC055,0.01,VWS V14.01,2013-08-29 18:06:00,
2013-08-29 14:11:00,86.1,75.2,29.94,NNE,32,3.0,4.0,70,0.00,,OVC055,0.01,VWS V14.01,2013-08-29 18:11:00,
2013-08-29 14:16:00,86.1,75.2,29.94,NNE,25,1.0,4.0,70,0.00,,OVC055,0.01,VWS V14.01,2013-08-29 18:16:00,
2013-08-29 14:21:00,86.2,75.3,29.94,ESE,113,1.0,4.0,70,0.00,,OVC055,0.01,VWS V14.01,2013-08-29 18:21:00,
2013-08-29 14:26:00,86.8,76.7,29.93,NE,49,2.0,4.0,72,0.00,,OVC055,0.01,VWS V14.01,2013-08-29 18:26:00,
2013-08-29 14:30:00,86.8,75.0,29.93,NNE,19,2.0,5.0,68,0.00,,OVC055,0.01,VWS V14.01,2013-08-29 18:30:00,
2013-08-29 14:31:00,86.7,73.5,29.93,NNE,16,4.0,7.0,65,0.00,,OVC055,0.01,VWS V14.01,2013-08-29 18:31:00,
2013-08-29 14:36:00,86.3,72.2,29.93,North,11,5.0,8.0,63,0.00,,OVC055,0.01,VWS V14.01,2013-08-29 18:36:00,
2013-08-29 14:41:00,86.4,72.3,29.93,North,5,7.0,12.0,63,0.00,,OVC055,0.01,VWS V14.01,2013-08-29 18:41:00,
2013-08-29 14:46:00,86.2,74.8,29.93,NE,36,4.0,12.0,69,0.00,,OVC055,0.01,VWS V14.01,2013-08-29 18:46:00,
2013-08-29 14:51:00,85.7,74.4,29.93,NNE,22,1.0,12.0,69,0.00,,OVC055,0.01,VWS V14.01,2013-08-29 18:51:00,
2013-08-29 14:56:00,85.7,74.8,29.92,NNE,32,2.0,12.0,70,0.00,,OVC055,0.01,VWS V14.01,2013-08-29 18:56:00,
2013-08-29 15:00:00,85.8,73.6,29.92,SSE,158,2.0,12.0,67,0.00,,OVC055,0.01,VWS V14.01,2013-08-29 19:00:00,
2013-08-29 15:01:00,85.9,75.0,29.92,NNE,29,5.0,5.0,70,0.00,,OVC055,0.01,VWS V14.01,2013-08-29 19:01:00,
2013-08-29 15:06:00,86.3,74.9,29.92,NNE,27,1.0,7.0,69,0.00,,OVC055,0.01,VWS V14.01,2013-08-29 19:06:00,
2013-08-29 15:11:00,86.3,71.3,29.92,NNE,32,5.0,10.0,61,0.00,,OVC055,0.01,VWS V14.01,2013-08-29 19:11:00,
2013-08-29 15:16:00,86.1,71.6,29.92,NNW,344,3.0,11.0,62,0.00,,OVC055,0.01,VWS V14.01,2013-08-29 19:16:00,
2013-08-29 15:21:00,86.6,72.0,29.92,North,11,6.0,11.0,62,0.00,,OVC055,0.01,VWS V14.01,2013-08-29 19:21:00,
2013-08-29 15:26:00,86.9,71.3,29.92,North,5,7.0,11.0,60,0.00,,OVC055,0.01,VWS V14.01,2013-08-29 19:26:00,
2013-08-29 15:30:00,86.7,72.1,29.92,NNE,13,5.0,13.0,62,0.00,,OVC055,0.01,VWS V14.01,2013-08-29 19:30:00,
2013-08-29 15:31:00,86.3,69.3,29.92,North,351,8.0,14.0,57,0.00,,OVC055,0.01,VWS V14.01,2013-08-29 19:31:00,
2013-08-29 15:36:00,86.2,69.7,29.92,NNE,13,1.0,14.0,58,0.00,,OVC055,0.01,VWS V14.01,2013-08-29 19:36:00,
2013-08-29 15:41:00,86.7,69.7,29.92,NNW,348,7.0,14.0,57,0.00,,OVC055,0.01,VWS V14.01,2013-08-29 19:41:00,
2013-08-29 15:46:00,86.9,70.9,29.91,NNW,333,4.0,14.0,59,0.00,,OVC055,0.01,VWS V14.01,2013-08-29 19:46:00,
2013-08-29 15:51:00,87.1,69.0,29.91,NNE,30,9.0,14.0,55,0.00,,OVC055,0.01,VWS V14.01,2013-08-29 19:51:00,
2013-08-29 15:56:00,86.8,69.2,29.92,NE,42,2.0,14.0,56,0.00,,OVC055,0.01,VWS V14.01,2013-08-29 19:56:00,
2013-08-29 16:00:00,87.0,69.4,29.91,NNW,330,12.0,14.0,56,0.00,,OVC055,0.01,VWS V14.01,2013-08-29 20:00:00,
2013-08-29 16:01:00,87.0,68.4,29.91,NNE,20,7.0,12.0,54,0.00,,OVC055,0.01,VWS V14.01,2013-08-29 20:01:00,
2013-08-29 16:06:00,86.6,69.1,29.91,NE,44,8.0,12.0,56,0.00,,OVC055,0.01,VWS V14.01,2013-08-29 20:06:00,
2013-08-29 16:11:00,86.5,67.9,29.91,NE,34,10.0,12.0,54,0.00,,OVC055,0.01,VWS V14.01,2013-08-29 20:11:00,
2013-08-29 16:16:00,86.5,67.9,29.91,ENE,61,2.0,12.0,54,0.00,,OVC055,0.01,VWS V14.01,2013-08-29 20:16:00,
2013-08-29 16:21:00,86.8,69.2,29.91,ENE,57,2.0,12.0,56,0.00,,OVC055,0.01,VWS V14.01,2013-08-29 20:21:00,
2013-08-29 16:26:00,86.9,69.8,29.91,NNE,28,5.0,12.0,57,0.00,,OVC055,0.01,VWS V14.01,2013-08-29 20:26:00,
2013-08-29 16:30:00,87.1,69.5,29.91,NNE,32,7.0,12.0,56,0.00,,OVC055,0.01,VWS V14.01,2013-08-29 20:30:00,
2013-08-29 16:31:00,87.1,71.5,29.91,NNE,22,3.0,7.0,60,0.00,,OVC055,0.01,VWS V14.01,2013-08-29 20:31:00,
2013-08-29 16:36:00,87.2,74.0,29.91,NNE,21,3.0,7.0,65,0.00,,OVC055,0.01,VWS V14.01,2013-08-29 20:36:00,
2013-08-29 16:41:00,87.0,73.8,29.91,NNE,14,2.0,7.0,65,0.00,,OVC055,0.01,VWS V14.01,2013-08-29 20:41:00,
2013-08-29 16:46:00,86.6,71.6,29.91,NNW,333,6.0,7.0,61,0.00,,OVC055,0.01,VWS V14.01,2013-08-29 20:46:00,
2013-08-29 16:51:00,86.4,71.4,29.91,North,5,5.0,10.0,61,0.00,,OVC055,0.01,VWS V14.01,2013-08-29 20:51:00,
2013-08-29 16:56:00,86.3,72.7,29.91,North,5,5.0,10.0,64,0.00,,OVC055,0.01,VWS V14.01,2013-08-29 20:56:00,
2013-08-29 17:00:00,86.2,72.1,29.91,NNE,19,5.0,10.0,63,0.00,,OVC055,0.01,VWS V14.01,2013-08-29 21:00:00,
2013-08-29 17:01:00,86.1,68.6,29.91,NNE,23,2.0,8.0,56,0.00,,OVC055,0.01,VWS V14.01,2013-08-29 21:01:00,
2013-08-29 17:05:00,86.1,68.1,29.91,North,360,4.0,8.0,55,0.00,,OVC055,0.01,VWS V14.01,2013-08-29 21:05:00,
2013-08-29 17:10:00,86.1,69.6,29.91,North,355,4.0,9.0,58,0.00,,OVC055,0.01,VWS V14.01,2013-08-29 21:10:00,
2013-08-29 17:15:00,85.9,68.9,29.91,North,355,4.0,11.0,57,0.00,,OVC055,0.01,VWS V14.01,2013-08-29 21:15:00,
2013-08-29 17:20:00,85.9,68.9,29.91,North,360,4.0,11.0,57,0.00,,OVC055,0.01,VWS V14.01,2013-08-29 21:20:00,
2013-08-29 17:25:00,85.7,67.7,29.91,North,350,6.0,12.0,55,0.00,,OVC055,0.01,VWS V14.01,2013-08-29 21:25:00,
2013-08-29 17:30:00,85.6,67.6,29.91,NNE,19,5.0,9.0,55,0.00,,OVC055,0.01,VWS V14.01,2013-08-29 21:30:00,
2013-08-29 17:35:00,85.3,67.3,29.91,NNE,30,7.0,10.0,55,0.00,,OVC055,0.01,VWS V14.01,2013-08-29 21:35:00,
2013-08-29 17:40:00,85.0,67.6,29.91,NNE,21,5.0,11.0,56,0.00,,OVC055,0.01,VWS V14.01,2013-08-29 21:40:00,
2013-08-29 17:45:00,84.7,68.8,29.91,NNE,32,4.0,11.0,59,0.00,,OVC055,0.01,VWS V14.01,2013-08-29 21:45:00,
2013-08-29 17:50:00,84.6,68.2,29.91,NNW,345,5.0,11.0,58,0.00,,OVC055,0.01,VWS V14.01,2013-08-29 21:50:00,
2013-08-29 17:55:00,84.5,69.1,29.91,NNE,19,5.0,11.0,60,0.00,,OVC055,0.01,VWS V14.01,2013-08-29 21:55:00,
2013-08-29 18:00:00,84.3,68.9,29.91,NNE,23,2.0,5.0,60,0.00,,OVC055,0.01,VWS V14.01,2013-08-29 22:00:00,
2013-08-29 18:05:00,84.0,68.6,29.91,North,355,2.0,5.0,60,0.00,,OVC055,0.01,VWS V14.01,2013-08-29 22:05:00,
2013-08-29 18:10:00,83.9,68.1,29.91,NNE,30,5.0,7.0,59,0.00,,OVC055,0.01,VWS V14.01,2013-08-29 22:10:00,
2013-08-29 18:15:00,83.9,69.0,29.91,NNE,14,0.0,7.0,61,0.00,,OVC055,0.01,VWS V14.01,2013-08-29 22:15:00,
2013-08-29 18:20:00,83.5,70.9,29.91,NNE,22,3.0,7.0,66,0.00,,OVC055,0.01,VWS V14.01,2013-08-29 22:20:00,
2013-08-29 18:25:00,82.7,71.9,29.91,North,9,0.0,7.0,70,0.00,,OVC055,0.01,VWS V14.01,2013-08-29 22:25:00,
2013-08-29 18:30:00,81.8,70.2,29.91,North,5,0.0,4.0,68,0.00,,OVC055,0.01,VWS V14.01,2013-08-29 22:30:00,
2013-08-29 18:35:00,80.9,70.6,29.91,North,351,1.0,4.0,71,0.00,,OVC055,0.01,VWS V14.01,2013-08-29 22:35:00,
2013-08-29 18:40:00,80.3,71.7,29.91,North,350,1.0,4.0,75,0.00,,OVC055,0.01,VWS V14.01,2013-08-29 22:40:00,
2013-08-29 18:45:00,79.9,71.3,29.91,North,5,0.0,4.0,75,0.00,,OVC055,0.01,VWS V14.01,2013-08-29 22:45:00,
2013-08-29 18:50:00,79.4,70.8,29.91,North,5,0.0,4.0,75,0.00,,OVC055,0.01,VWS V14.01,2013-08-29 22:50:00,
2013-08-29 18:55:00,78.9,71.5,29.91,North,5,0.0,4.0,78,0.00,,OVC055,0.01,VWS V14.01,2013-08-29 22:55:00,
2013-08-29 19:00:00,78.6,71.2,29.91,North,5,0.0,2.0,78,0.00,,OVC055,0.01,VWS V14.01,2013-08-29 23:00:00,
2013-08-29 19:05:00,78.5,71.4,29.91,North,5,0.0,2.0,79,0.00,,OVC055,0.01,VWS V14.01,2013-08-29 23:05:00,
2013-08-29 19:10:00,78.1,71.8,29.91,North,5,0.0,2.0,81,0.00,,OVC055,0.01,VWS V14.01,2013-08-29 23:10:00,
2013-08-29 19:15:00,77.7,71.8,29.91,North,5,0.0,2.0,82,0.00,,OVC055,0.01,VWS V14.01,2013-08-29 23:15:00,
2013-08-29 19:20:00,77.5,71.9,29.91,North,5,0.0,2.0,83,0.00,,OVC055,0.01,VWS V14.01,2013-08-29 23:20:00,
2013-08-29 19:25:00,77.3,72.1,29.91,North,5,0.0,2.0,84,0.00,,OVC055,0.01,VWS V14.01,2013-08-29 23:25:00,
2013-08-29 19:30:00,77.0,72.2,29.92,North,5,0.0,1.0,85,0.00,,OVC055,0.01,VWS V14.01,2013-08-29 23:30:00,
2013-08-29 19:35:00,76.5,72.0,29.92,North,5,0.0,1.0,86,0.00,,OVC055,0.01,VWS V14.01,2013-08-29 23:35:00,
2013-08-29 19:40:00,76.2,72.1,29.92,North,5,0.0,1.0,87,0.00,,OVC055,0.01,VWS V14.01,2013-08-29 23:40:00,
2013-08-29 19:45:00,75.8,71.7,29.92,North,5,0.0,1.0,87,0.00,,OVC055,0.01,VWS V14.01,2013-08-29 23:45:00,
2013-08-29 19:50:00,75.6,71.5,29.92,North,5,0.0,1.0,87,0.00,,OVC055,0.01,VWS V14.01,2013-08-29 23:50:00,
2013-08-29 19:55:00,75.3,71.5,29.92,North,5,0.0,1.0,88,0.00,,OVC055,0.01,VWS V14.01,2013-08-29 23:55:00,
2013-08-29 20:00:00,75.1,71.3,29.93,North,5,0.0,0.0,88,0.00,,OVC055,0.01,VWS V14.01,2013-08-30 00:00:00,
2013-08-29 20:05:00,74.8,71.3,29.93,North,5,0.0,0.0,89,0.00,,OVC055,0.01,VWS V14.01,2013-08-30 00:05:00,
2013-08-29 20:10:00,74.4,71.3,29.93,North,5,0.0,0.0,90,0.00,,OVC055,0.01,VWS V14.01,2013-08-30 00:10:00,
2013-08-29 20:15:00,74.1,71.3,29.94,North,5,0.0,0.0,91,0.00,,OVC055,0.01,VWS V14.01,2013-08-30 00:15:00,
2013-08-29 20:20:00,73.8,71.0,29.94,North,5,0.0,1.0,91,0.00,,OVC055,0.01,VWS V14.01,2013-08-30 00:20:00,
2013-08-29 20:25:00,73.6,71.1,29.94,North,5,0.0,1.0,92,0.00,,OVC055,0.01,VWS V14.01,2013-08-30 00:25:00,
2013-08-29 20:30:00,73.3,70.8,29.94,North,5,0.0,0.0,92,0.00,,OVC055,0.01,VWS V14.01,2013-08-30 00:30:00,
2013-08-29 20:35:00,73.0,70.9,29.95,North,5,0.0,0.0,93,0.00,,OVC055,0.01,VWS V14.01,2013-08-30 00:35:00,
2013-08-29 20:40:00,72.8,71.0,29.95,North,5,0.0,0.0,94,0.00,,OVC055,0.01,VWS V14.01,2013-08-30 00:40:00,
2013-08-29 20:45:00,72.5,70.7,29.95,North,5,0.0,0.0,94,0.00,,OVC055,0.01,VWS V14.01,2013-08-30 00:45:00,
2013-08-29 20:50:00,72.2,70.7,29.95,North,5,0.0,0.0,95,0.00,,OVC055,0.01,VWS V14.01,2013-08-30 00:50:00,
2013-08-29 20:55:00,71.9,70.4,29.95,North,5,0.0,0.0,95,0.00,,OVC055,0.01,VWS V14.01,2013-08-30 00:55:00,
2013-08-29 21:00:00,71.7,70.5,29.96,North,5,0.0,0.0,96,0.00,,OVC055,0.01,VWS V14.01,2013-08-30 01:00:00,
2013-08-29 21:05:00,71.6,70.4,29.95,North,5,0.0,0.0,96,0.00,,OVC055,0.01,VWS V14.01,2013-08-30 01:05:00,
2013-08-29 21:10:00,71.4,70.2,29.96,North,5,0.0,0.0,96,0.00,,OVC055,0.01,VWS V14.01,2013-08-30 01:10:00,
2013-08-29 21:15:00,71.3,70.4,29.95,North,5,0.0,0.0,97,0.00,,OVC055,0.01,VWS V14.01,2013-08-30 01:15:00,
2013-08-29 21:20:00,71.3,70.4,29.96,North,5,0.0,0.0,97,0.00,,OVC055,0.01,VWS V14.01,2013-08-30 01:20:00,
2013-08-29 21:25:00,71.0,69.8,29.96,North,5,0.0,0.0,96,0.00,,OVC055,0.01,VWS V14.01,2013-08-30 01:25:00,
2013-08-29 21:30:00,70.8,69.9,29.97,North,5,0.0,0.0,97,0.00,,OVC055,0.01,VWS V14.01,2013-08-30 01:30:00,
2013-08-29 21:35:00,70.7,69.8,29.96,North,5,0.0,0.0,97,0.00,,OVC055,0.01,VWS V14.01,2013-08-30 01:35:00,
2013-08-29 21:40:00,70.6,69.7,29.97,North,5,0.0,0.0,97,0.00,,OVC055,0.01,VWS V14.01,2013-08-30 01:40:00,
2013-08-29 21:45:00,70.5,69.9,29.97,North,5,0.0,0.0,98,0.00,,OVC055,0.01,VWS V14.01,2013-08-30 01:45:00,
2013-08-29 21:50:00,70.4,69.8,29.97,North,5,0.0,0.0,98,0.00,,OVC055,0.01,VWS V14.01,2013-08-30 01:50:00,
2013-08-29 21:55:00,70.2,69.6,29.97,North,5,0.0,0.0,98,0.00,,OVC055,0.01,VWS V14.01,2013-08-30 01:55:00,
2013-08-29 22:00:00,70.1,69.5,29.97,North,5,0.0,0.0,98,0.00,,OVC055,0.01,VWS V14.01,2013-08-30 02:00:00,
2013-08-29 22:05:00,70.0,69.4,29.97,North,5,0.0,0.0,98,0.00,,OVC055,0.01,VWS V14.01,2013-08-30 02:05:00,
2013-08-29 22:10:00,69.9,69.3,29.97,North,5,0.0,0.0,98,0.00,,OVC055,0.01,VWS V14.01,2013-08-30 02:10:00,
2013-08-29 22:15:00,69.8,69.5,29.97,North,5,0.0,0.0,99,0.00,,OVC055,0.01,VWS V14.01,2013-08-30 02:15:00,
2013-08-29 22:20:00,69.8,69.5,29.97,North,5,0.0,0.0,99,0.00,,OVC055,0.01,VWS V14.01,2013-08-30 02:20:00,
2013-08-29 22:25:00,69.8,69.5,29.97,North,5,0.0,0.0,99,0.00,,OVC055,0.01,VWS V14.01,2013-08-30 02:25:00,
2013-08-29 22:30:00,69.7,69.1,29.97,North,5,0.0,0.0,98,0.00,,OVC055,0.01,VWS V14.01,2013-08-30 02:30:00,
2013-08-29 22:35:00,69.6,69.0,29.97,North,5,0.0,0.0,98,0.00,,OVC055,0.01,VWS V14.01,2013-08-30 02:35:00,
2013-08-29 22:40:00,69.5,69.2,29.96,North,5,0.0,0.0,99,0.00,,OVC055,0.01,VWS V14.01,2013-08-30 02:40:00,
2013-08-29 22:45:00,69.5,69.2,29.97,North,5,0.0,0.0,99,0.00,,OVC055,0.01,VWS V14.01,2013-08-30 02:45:00,
2013-08-29 22:50:00,69.3,69.0,29.97,North,5,0.0,0.0,99,0.00,,OVC055,0.01,VWS V14.01,2013-08-30 02:50:00,
2013-08-29 22:55:00,69.2,68.9,29.97,North,5,0.0,0.0,99,0.00,,OVC055,0.01,VWS V14.01,2013-08-30 02:55:00,
2013-08-29 23:00:00,69.2,68.9,29.97,North,5,0.0,0.0,99,0.00,,OVC055,0.01,VWS V14.01,2013-08-30 03:00:00,
2013-08-29 23:05:00,69.2,68.9,29.97,North,5,0.0,0.0,99,0.00,,OVC055,0.01,VWS V14.01,2013-08-30 03:05:00,
2013-08-29 23:10:00,69.1,68.8,29.97,North,5,0.0,0.0,99,0.00,,OVC055,0.01,VWS V14.01,2013-08-30 03:10:00,
2013-08-29 23:15:00,69.0,68.7,29.97,North,5,0.0,0.0,99,0.00,,OVC055,0.01,VWS V14.01,2013-08-30 03:15:00,
2013-08-29 23:20:00,69.0,68.7,29.97,North,5,0.0,0.0,99,0.00,,OVC055,0.01,VWS V14.01,2013-08-30 03:20:00,
2013-08-29 23:25:00,69.1,69.1,29.98,North,5,0.0,0.0,100,0.00,,OVC055,0.01,VWS V14.01,2013-08-30 03:25:00,
2013-08-29 23:30:00,69.1,69.1,29.98,North,5,0.0,0.0,100,0.00,,OVC055,0.01,VWS V14.01,2013-08-30 03:30:00,
2013-08-29 23:35:00,69.2,69.2,29.98,North,5,0.0,0.0,100,0.00,,OVC055,0.01,VWS V14.01,2013-08-30 03:35:00,
2013-08-29 23:39:00,69.2,68.9,29.98,North,5,0.0,0.0,99,0.00,,OVC055,0.01,VWS V14.01,2013-08-30 03:39:00,
2013-08-29 23:44:00,69.1,68.8,29.97,North,5,0.0,0.0,99,0.00,,OVC055,0.01,VWS V14.01,2013-08-30 03:44:00,
2013-08-29 23:49:00,69.1,68.8,29.97,North,5,0.0,0.0,99,0.00,,OVC055,0.01,VWS V14.01,2013-08-30 03:49:00,
2013-08-29 23:54:00,69.0,68.7,29.97,North,5,0.0,0.0,99,0.00,,OVC055,0.01,VWS V14.01,2013-08-30 03:54:00,
2013-08-29 23:59:00,69.0,68.7,29.98,North,5,0.0,0.0,99,0.00,,OVC055,0.00,VWS V14.01,2013-08-30 03:59:00,